createdAt,value
2018-12-31T00:00:31.171Z,965.87
2018-12-31T00:01:31.155Z,965.81
2018-12-31T00:02:31.139Z,965.86
2018-12-31T00:03:31.121Z,965.86
2018-12-31T00:04:31.104Z,965.9
2018-12-31T00:05:31.087Z,965.88
2018-12-31T00:06:31.070Z,965.88
2018-12-31T00:07:31.054Z,965.88
2018-12-31T00:08:31.038Z,965.92
2018-12-31T00:09:31.019Z,965.89
2018-12-31T00:10:31.003Z,965.92
2018-12-31T00:11:30.986Z,965.89
2018-12-31T00:12:30.971Z,965.86
2018-12-31T00:13:30.955Z,965.87
2018-12-31T00:14:30.936Z,965.88
2018-12-31T00:15:30.917Z,965.94
2018-12-31T00:16:30.908Z,965.92
2018-12-31T00:17:30.884Z,965.99
2018-12-31T00:18:30.868Z,965.96
2018-12-31T00:19:30.853Z,965.96
2018-12-31T00:20:30.835Z,965.97
2018-12-31T00:21:30.819Z,965.97
2018-12-31T00:22:30.800Z,965.95
2018-12-31T00:23:30.786Z,965.95
2018-12-31T00:24:30.767Z,965.93
2018-12-31T00:25:30.750Z,965.92
2018-12-31T00:26:30.734Z,965.92
2018-12-31T00:27:30.718Z,965.96
2018-12-31T00:28:30.701Z,965.95
2018-12-31T00:29:30.685Z,966.03
2018-12-31T00:30:30.668Z,966.02
2018-12-31T00:31:30.651Z,966.02
2018-12-31T00:32:30.635Z,965.99
2018-12-31T00:33:30.618Z,965.99
2018-12-31T00:34:30.601Z,966.04
2018-12-31T00:35:30.586Z,966.08
2018-12-31T00:36:30.568Z,966
2018-12-31T00:37:30.550Z,966.04
2018-12-31T00:38:30.534Z,966.07
2018-12-31T00:39:30.519Z,966.03
2018-12-31T00:40:30.502Z,965.98
2018-12-31T00:41:30.485Z,965.98
2018-12-31T00:42:30.466Z,965.94
2018-12-31T00:43:30.452Z,965.91
2018-12-31T00:44:30.435Z,965.91
2018-12-31T00:45:30.418Z,965.9
2018-12-31T00:46:30.400Z,965.86
2018-12-31T00:47:30.384Z,965.85
2018-12-31T00:48:30.367Z,965.89
2018-12-31T00:49:30.349Z,965.82
2018-12-31T00:50:30.334Z,965.79
2018-12-31T00:51:30.317Z,965.81
2018-12-31T00:52:30.301Z,965.83
2018-12-31T00:53:30.285Z,965.8
2018-12-31T00:54:30.269Z,965.81
2018-12-31T00:55:30.251Z,965.81
2018-12-31T00:56:30.234Z,965.78
2018-12-31T00:57:30.226Z,965.84
2018-12-31T00:58:30.200Z,965.82
2018-12-31T00:59:30.191Z,965.83
2018-12-31T01:00:30.196Z,965.81
2018-12-31T01:01:30.148Z,965.82
2018-12-31T01:02:30.135Z,965.84
2018-12-31T01:03:30.118Z,965.81
2018-12-31T01:04:30.100Z,965.79
2018-12-31T01:05:30.084Z,965.81
2018-12-31T01:06:30.066Z,965.82
2018-12-31T01:07:30.051Z,965.83
2018-12-31T01:08:30.033Z,965.82
2018-12-31T01:09:30.018Z,965.84
2018-12-31T01:10:30.000Z,965.86
2018-12-31T01:11:29.984Z,965.9
2018-12-31T01:12:29.966Z,965.88
2018-12-31T01:13:29.950Z,965.87
2018-12-31T01:14:29.934Z,965.89
2018-12-31T01:15:29.916Z,965.89
2018-12-31T01:16:29.900Z,965.84
2018-12-31T01:17:29.887Z,965.85
2018-12-31T01:18:29.867Z,965.82
2018-12-31T01:19:29.850Z,965.82
2018-12-31T01:20:29.834Z,965.83
2018-12-31T01:21:29.818Z,965.86
2018-12-31T01:22:29.800Z,965.87
2018-12-31T01:23:29.783Z,965.86
2018-12-31T01:24:29.767Z,965.88
2018-12-31T01:25:29.750Z,965.91
2018-12-31T01:26:29.734Z,965.86
2018-12-31T01:27:29.715Z,965.89
2018-12-31T01:28:29.702Z,965.8
2018-12-31T01:29:29.684Z,965.86
2018-12-31T01:30:29.666Z,965.85
2018-12-31T01:31:29.650Z,965.85
2018-12-31T01:32:29.635Z,965.9
2018-12-31T01:33:29.617Z,965.88
2018-12-31T01:34:29.600Z,965.84
2018-12-31T01:35:29.583Z,965.84
2018-12-31T01:36:29.567Z,965.82
2018-12-31T01:37:29.551Z,965.79
2018-12-31T01:38:29.533Z,965.76
2018-12-31T01:39:29.517Z,965.72
2018-12-31T01:40:29.501Z,965.7
2018-12-31T01:41:29.484Z,965.75
2018-12-31T01:42:29.467Z,965.74
2018-12-31T01:43:29.452Z,965.77
2018-12-31T01:44:29.433Z,965.74
2018-12-31T01:45:29.416Z,965.72
2018-12-31T01:46:29.403Z,965.69
2018-12-31T01:47:29.385Z,965.69
2018-12-31T01:48:29.366Z,965.67
2018-12-31T01:49:29.350Z,965.64
2018-12-31T01:50:29.332Z,965.63
2018-12-31T01:51:29.317Z,965.59
2018-12-31T01:52:29.300Z,965.64
2018-12-31T01:53:29.283Z,965.66
2018-12-31T01:54:29.266Z,965.67
2018-12-31T01:55:29.249Z,965.66
2018-12-31T01:56:29.234Z,965.66
2018-12-31T01:57:29.217Z,965.68
2018-12-31T01:58:29.199Z,965.69
2018-12-31T01:59:29.183Z,965.73
2018-12-31T02:00:29.166Z,965.72
2018-12-31T02:01:29.149Z,965.75
2018-12-31T02:02:29.132Z,965.76
2018-12-31T02:03:29.117Z,965.74
2018-12-31T02:04:29.100Z,965.73
2018-12-31T02:05:29.084Z,965.76
2018-12-31T02:06:29.067Z,965.77
2018-12-31T02:07:29.050Z,965.76
2018-12-31T02:08:29.034Z,965.77
2018-12-31T02:09:29.019Z,965.77
2018-12-31T02:10:29.000Z,965.76
2018-12-31T02:11:28.984Z,965.72
2018-12-31T02:12:28.966Z,965.72
2018-12-31T02:13:28.950Z,965.7
2018-12-31T02:14:28.933Z,965.67
2018-12-31T02:15:28.917Z,965.7
2018-12-31T02:16:28.902Z,965.71
2018-12-31T02:17:28.883Z,965.77
2018-12-31T02:18:28.867Z,965.73
2018-12-31T02:19:28.851Z,965.78
2018-12-31T02:20:28.834Z,965.8
2018-12-31T02:21:28.817Z,965.83
2018-12-31T02:22:28.801Z,965.88
2018-12-31T02:23:28.784Z,965.86
2018-12-31T02:24:28.766Z,965.94
2018-12-31T02:25:28.750Z,965.96
2018-12-31T02:26:28.734Z,965.93
2018-12-31T02:27:28.718Z,965.95
2018-12-31T02:28:28.700Z,965.94
2018-12-31T02:29:28.683Z,965.9
2018-12-31T02:30:28.672Z,965.87
2018-12-31T02:31:28.652Z,965.84
2018-12-31T02:32:28.634Z,965.79
2018-12-31T02:33:28.620Z,965.84
2018-12-31T02:34:28.604Z,965.8
2018-12-31T02:35:28.583Z,965.8
2018-12-31T02:36:28.567Z,965.78
2018-12-31T02:37:28.550Z,965.74
2018-12-31T02:38:28.535Z,965.78
2018-12-31T02:39:28.517Z,965.73
2018-12-31T02:40:28.502Z,965.72
2018-12-31T02:41:28.486Z,965.76
2018-12-31T02:42:28.469Z,965.76
2018-12-31T02:43:28.451Z,965.76
2018-12-31T02:44:28.436Z,965.67
2018-12-31T02:45:28.418Z,965.64
2018-12-31T02:46:28.402Z,965.6
2018-12-31T02:47:28.386Z,965.68
2018-12-31T02:48:28.371Z,965.7
2018-12-31T02:49:28.354Z,965.72
2018-12-31T02:50:28.334Z,965.69
2018-12-31T02:51:28.319Z,965.74
2018-12-31T02:52:28.307Z,965.76
2018-12-31T02:53:28.287Z,965.83
2018-12-31T02:54:28.270Z,965.86
2018-12-31T02:55:28.252Z,965.8
2018-12-31T02:56:28.236Z,965.73
2018-12-31T02:57:28.219Z,965.67
2018-12-31T02:58:28.203Z,965.68
2018-12-31T02:59:28.186Z,965.68
2018-12-31T03:00:28.170Z,965.75
2018-12-31T03:01:28.153Z,965.75
2018-12-31T03:02:28.136Z,965.77
2018-12-31T03:03:28.120Z,965.77
2018-12-31T03:04:28.104Z,965.8
2018-12-31T03:05:28.090Z,965.77
2018-12-31T03:06:28.071Z,965.77
2018-12-31T03:07:28.053Z,965.81
2018-12-31T03:08:28.040Z,965.77
2018-12-31T03:09:28.021Z,965.82
2018-12-31T03:10:28.011Z,965.81
2018-12-31T03:11:27.989Z,965.78
2018-12-31T03:12:27.972Z,965.72
2018-12-31T03:13:27.955Z,965.74
2018-12-31T03:14:27.937Z,965.73
2018-12-31T03:15:27.923Z,965.69
2018-12-31T03:16:27.904Z,965.66
2018-12-31T03:17:27.888Z,965.61
2018-12-31T03:18:27.872Z,965.66
2018-12-31T03:19:27.855Z,965.64
2018-12-31T03:20:27.839Z,965.59
2018-12-31T03:21:27.821Z,965.61
2018-12-31T03:22:27.805Z,965.71
2018-12-31T03:23:27.787Z,965.7
2018-12-31T03:24:27.772Z,965.72
2018-12-31T03:25:27.755Z,965.76
2018-12-31T03:26:27.740Z,965.81
2018-12-31T03:27:27.722Z,965.99
2018-12-31T03:28:27.705Z,966
2018-12-31T03:29:27.689Z,966.03
2018-12-31T03:30:27.675Z,966.04
2018-12-31T03:31:27.658Z,965.99
2018-12-31T03:32:27.641Z,965.94
2018-12-31T03:33:27.625Z,965.91
2018-12-31T03:34:27.605Z,965.86
2018-12-31T03:35:27.590Z,965.87
2018-12-31T03:36:27.683Z,965.87
2018-12-31T03:37:27.558Z,965.86
2018-12-31T03:38:27.544Z,965.89
2018-12-31T03:39:27.527Z,965.85
2018-12-31T03:40:27.511Z,965.84
2018-12-31T03:41:27.493Z,965.88
2018-12-31T03:42:27.477Z,965.87
2018-12-31T03:43:27.460Z,965.92
2018-12-31T03:44:27.444Z,965.89
2018-12-31T03:45:27.426Z,965.88
2018-12-31T03:46:27.409Z,965.87
2018-12-31T03:47:27.394Z,965.84
2018-12-31T03:48:27.375Z,965.88
2018-12-31T03:49:27.360Z,965.92
2018-12-31T03:50:27.346Z,965.96
2018-12-31T03:51:27.333Z,965.9
2018-12-31T03:52:27.311Z,965.89
2018-12-31T03:53:27.299Z,965.9
2018-12-31T03:54:27.279Z,965.96
2018-12-31T03:55:27.265Z,965.99
2018-12-31T03:56:27.245Z,966.08
2018-12-31T03:57:27.228Z,966.07
2018-12-31T03:58:27.213Z,966.07
2018-12-31T03:59:27.197Z,966.05
2018-12-31T04:00:27.185Z,965.99
2018-12-31T04:01:27.163Z,965.98
2018-12-31T04:02:27.149Z,965.95
2018-12-31T04:03:27.133Z,965.93
2018-12-31T04:04:27.114Z,965.91
2018-12-31T04:05:27.098Z,965.92
2018-12-31T04:06:27.083Z,965.89
2018-12-31T04:07:27.065Z,965.92
2018-12-31T04:08:27.049Z,965.91
2018-12-31T04:09:27.032Z,965.92
2018-12-31T04:10:27.015Z,965.96
2018-12-31T04:11:27.002Z,965.97
2018-12-31T04:12:26.983Z,966.02
2018-12-31T04:13:26.967Z,966
2018-12-31T04:14:26.950Z,966.02
2018-12-31T04:15:26.935Z,966.05
2018-12-31T04:16:26.919Z,966.03
2018-12-31T04:17:26.902Z,966.09
2018-12-31T04:18:26.884Z,966.03
2018-12-31T04:19:26.868Z,966.09
2018-12-31T04:20:26.852Z,966.07
2018-12-31T04:21:26.834Z,966.06
2018-12-31T04:22:26.819Z,966.11
2018-12-31T04:23:28.677Z,966.07
2018-12-31T04:24:26.786Z,966.04
2018-12-31T04:25:26.769Z,966.13
2018-12-31T04:26:26.753Z,966.16
2018-12-31T04:27:26.737Z,966.14
2018-12-31T04:28:26.724Z,966.14
2018-12-31T04:29:26.704Z,966.08
2018-12-31T04:30:26.689Z,966.07
2018-12-31T04:31:26.672Z,966.05
2018-12-31T04:32:26.770Z,966.1
2018-12-31T04:33:26.638Z,966.07
2018-12-31T04:34:26.623Z,966.02
2018-12-31T04:35:26.607Z,966.05
2018-12-31T04:36:26.588Z,966.1
2018-12-31T04:37:26.724Z,966.08
2018-12-31T04:38:26.556Z,966.17
2018-12-31T04:39:26.542Z,966.17
2018-12-31T04:40:26.521Z,966.14
2018-12-31T04:41:26.507Z,966.12
2018-12-31T04:42:26.490Z,966.12
2018-12-31T04:43:26.473Z,966.12
2018-12-31T04:44:26.461Z,966.1
2018-12-31T04:45:26.440Z,966.1
2018-12-31T04:46:26.424Z,966.12
2018-12-31T04:47:26.408Z,966.09
2018-12-31T04:48:26.393Z,966.09
2018-12-31T04:49:26.375Z,966.05
2018-12-31T04:50:26.360Z,966.07
2018-12-31T04:51:26.341Z,966.05
2018-12-31T04:52:26.330Z,966.06
2018-12-31T04:53:26.311Z,966.01
2018-12-31T04:54:26.307Z,966.01
2018-12-31T04:55:26.275Z,966.02
2018-12-31T04:56:26.261Z,966.07
2018-12-31T04:57:26.247Z,966.1
2018-12-31T04:58:26.229Z,966.13
2018-12-31T04:59:26.218Z,966.1
2018-12-31T05:00:26.194Z,966.14
2018-12-31T05:01:26.181Z,966.09
2018-12-31T05:02:26.162Z,966.03
2018-12-31T05:03:26.146Z,966.02
2018-12-31T05:04:26.129Z,966.05
2018-12-31T05:05:26.114Z,966.08
2018-12-31T05:06:26.096Z,966.11
2018-12-31T05:07:26.081Z,966.08
2018-12-31T05:08:26.065Z,966.12
2018-12-31T05:09:26.050Z,966.13
2018-12-31T05:10:26.032Z,966.1
2018-12-31T05:11:26.014Z,966.09
2018-12-31T05:12:25.999Z,966.05
2018-12-31T05:13:25.984Z,966.05
2018-12-31T05:14:26.065Z,966.11
2018-12-31T05:15:25.950Z,966.18
2018-12-31T05:16:25.940Z,966.2
2018-12-31T05:17:25.916Z,966.17
2018-12-31T05:18:25.901Z,966.18
2018-12-31T05:19:25.885Z,966.15
2018-12-31T05:20:25.869Z,966.2
2018-12-31T05:21:25.852Z,966.17
2018-12-31T05:22:25.835Z,966.14
2018-12-31T05:23:25.818Z,966.13
2018-12-31T05:24:25.805Z,966.14
2018-12-31T05:25:25.787Z,966.12
2018-12-31T05:26:25.771Z,966.12
2018-12-31T05:27:25.753Z,966.13
2018-12-31T05:28:25.739Z,966.13
2018-12-31T05:29:25.722Z,966.12
2018-12-31T05:30:25.706Z,966.12
2018-12-31T05:31:25.690Z,966.13
2018-12-31T05:32:25.673Z,966.19
2018-12-31T05:33:25.658Z,966.19
2018-12-31T05:34:25.670Z,966.22
2018-12-31T05:35:25.623Z,966.23
2018-12-31T05:36:25.608Z,966.19
2018-12-31T05:37:25.591Z,966.17
2018-12-31T05:38:25.575Z,966.12
2018-12-31T05:39:25.559Z,966.05
2018-12-31T05:40:25.543Z,966.06
2018-12-31T05:41:25.527Z,966.1
2018-12-31T05:42:25.513Z,966.11
2018-12-31T05:43:25.495Z,966.11
2018-12-31T05:44:25.479Z,966.07
2018-12-31T05:45:25.462Z,966.08
2018-12-31T05:46:25.447Z,966.1
2018-12-31T05:47:25.430Z,966.15
2018-12-31T05:48:25.415Z,966.14
2018-12-31T05:49:25.397Z,966.13
2018-12-31T05:50:25.381Z,966.13
2018-12-31T05:51:25.364Z,966.13
2018-12-31T05:52:25.349Z,966.16
2018-12-31T05:53:25.333Z,966.21
2018-12-31T05:54:25.314Z,966.19
2018-12-31T05:55:25.299Z,966.21
2018-12-31T05:56:25.283Z,966.29
2018-12-31T05:57:25.269Z,966.25
2018-12-31T05:58:25.251Z,966.26
2018-12-31T05:59:25.237Z,966.27
2018-12-31T06:00:25.219Z,966.24
2018-12-31T06:01:25.201Z,966.17
2018-12-31T06:02:25.185Z,966.2
2018-12-31T06:03:25.170Z,966.17
2018-12-31T06:04:25.153Z,966.18
2018-12-31T06:05:25.137Z,966.22
2018-12-31T06:06:25.120Z,966.22
2018-12-31T06:07:25.103Z,966.28
2018-12-31T06:08:25.088Z,966.29
2018-12-31T06:09:25.072Z,966.28
2018-12-31T06:10:25.055Z,966.27
2018-12-31T06:11:25.039Z,966.25
2018-12-31T06:12:25.024Z,966.27
2018-12-31T06:13:25.006Z,966.24
2018-12-31T06:14:24.992Z,966.24
2018-12-31T06:15:24.974Z,966.24
2018-12-31T06:16:24.958Z,966.24
2018-12-31T06:17:24.943Z,966.22
2018-12-31T06:18:24.926Z,966.26
2018-12-31T06:19:24.910Z,966.35
2018-12-31T06:20:24.894Z,966.3
2018-12-31T06:21:24.878Z,966.32
2018-12-31T06:22:24.861Z,966.32
2018-12-31T06:23:24.844Z,966.39
2018-12-31T06:24:24.830Z,966.32
2018-12-31T06:25:24.813Z,966.38
2018-12-31T06:26:24.796Z,966.42
2018-12-31T06:27:24.779Z,966.35
2018-12-31T06:28:24.765Z,966.34
2018-12-31T06:29:24.748Z,966.35
2018-12-31T06:30:24.730Z,966.34
2018-12-31T06:31:24.715Z,966.33
2018-12-31T06:32:24.698Z,966.36
2018-12-31T06:33:24.695Z,966.36
2018-12-31T06:34:24.666Z,966.39
2018-12-31T06:35:24.652Z,966.36
2018-12-31T06:36:24.635Z,966.32
2018-12-31T06:37:24.618Z,966.33
2018-12-31T06:38:24.602Z,966.4
2018-12-31T06:39:24.585Z,966.44
2018-12-31T06:40:24.571Z,966.45
2018-12-31T06:41:24.555Z,966.45
2018-12-31T06:42:24.537Z,966.47
2018-12-31T06:43:24.521Z,966.47
2018-12-31T06:44:24.507Z,966.46
2018-12-31T06:45:24.488Z,966.48
2018-12-31T06:46:24.472Z,966.48
2018-12-31T06:47:24.456Z,966.5
2018-12-31T06:48:24.446Z,966.54
2018-12-31T06:49:24.426Z,966.53
2018-12-31T06:50:24.408Z,966.52
2018-12-31T06:51:24.393Z,966.54
2018-12-31T06:52:24.375Z,966.53
2018-12-31T06:53:24.360Z,966.55
2018-12-31T06:54:24.344Z,966.57
2018-12-31T06:55:24.327Z,966.6
2018-12-31T06:56:24.315Z,966.6
2018-12-31T06:57:24.295Z,966.58
2018-12-31T06:58:25.424Z,966.58
2018-12-31T06:59:24.262Z,966.61
2018-12-31T07:00:24.247Z,966.61
2018-12-31T07:01:24.232Z,966.63
2018-12-31T07:02:24.215Z,966.6
2018-12-31T07:03:24.199Z,966.58
2018-12-31T07:04:24.182Z,966.62
2018-12-31T07:05:24.167Z,966.57
2018-12-31T07:06:24.152Z,966.62
2018-12-31T07:07:24.134Z,966.6
2018-12-31T07:08:24.119Z,966.57
2018-12-31T07:09:24.102Z,966.5
2018-12-31T07:10:24.086Z,966.55
2018-12-31T07:11:24.069Z,966.54
2018-12-31T07:12:24.054Z,966.53
2018-12-31T07:13:24.038Z,966.53
2018-12-31T07:14:24.025Z,966.49
2018-12-31T07:15:24.006Z,966.49
2018-12-31T07:16:23.991Z,966.5
2018-12-31T07:17:23.974Z,966.39
2018-12-31T07:18:23.958Z,966.41
2018-12-31T07:19:23.940Z,966.38
2018-12-31T07:20:23.927Z,966.42
2018-12-31T07:21:23.910Z,966.41
2018-12-31T07:22:23.892Z,966.43
2018-12-31T07:23:23.877Z,966.53
2018-12-31T07:24:23.861Z,966.54
2018-12-31T07:25:23.845Z,966.56
2018-12-31T07:26:23.829Z,966.56
2018-12-31T07:27:23.813Z,966.55
2018-12-31T07:28:23.796Z,966.55
2018-12-31T07:29:23.779Z,966.57
2018-12-31T07:30:23.766Z,966.6
2018-12-31T07:31:23.748Z,966.61
2018-12-31T07:32:23.731Z,966.6
2018-12-31T07:33:23.715Z,966.64
2018-12-31T07:34:23.700Z,966.66
2018-12-31T07:35:23.683Z,966.69
2018-12-31T07:36:23.667Z,966.75
2018-12-31T07:37:23.652Z,966.78
2018-12-31T07:38:23.635Z,966.84
2018-12-31T07:39:23.620Z,966.83
2018-12-31T07:40:23.603Z,966.84
2018-12-31T07:41:23.587Z,966.95
2018-12-31T07:42:23.570Z,966.98
2018-12-31T07:43:23.557Z,967.08
2018-12-31T07:44:23.540Z,967.09
2018-12-31T07:45:23.523Z,967.13
2018-12-31T07:46:23.507Z,967.14
2018-12-31T07:47:23.494Z,967.17
2018-12-31T07:48:23.476Z,967.14
2018-12-31T07:49:23.460Z,967.12
2018-12-31T07:50:23.443Z,967.08
2018-12-31T07:51:23.427Z,967.08
2018-12-31T07:52:23.411Z,967.11
2018-12-31T07:53:23.394Z,967.15
2018-12-31T07:54:23.381Z,967.18
2018-12-31T07:55:23.363Z,967.17
2018-12-31T07:56:23.348Z,967.21
2018-12-31T07:57:23.331Z,967.19
2018-12-31T07:58:23.316Z,967.14
2018-12-31T07:59:23.300Z,967.16
2018-12-31T08:00:23.284Z,967.18
2018-12-31T08:01:23.267Z,967.19
2018-12-31T08:02:23.252Z,967.25
2018-12-31T08:03:23.235Z,967.18
2018-12-31T08:04:23.218Z,967.12
2018-12-31T08:05:23.205Z,967.08
2018-12-31T08:06:23.188Z,967.1
2018-12-31T08:07:23.173Z,967.06
2018-12-31T08:08:23.156Z,967.1
2018-12-31T08:09:23.140Z,967.09
2018-12-31T08:10:23.125Z,967.05
2018-12-31T08:11:23.110Z,967.03
2018-12-31T08:12:23.092Z,967.04
2018-12-31T08:13:23.076Z,967.02
2018-12-31T08:14:23.061Z,967.02
2018-12-31T08:15:23.046Z,966.98
2018-12-31T08:16:23.029Z,966.96
2018-12-31T08:17:23.013Z,966.99
2018-12-31T08:18:22.996Z,966.94
2018-12-31T08:19:22.980Z,966.99
2018-12-31T08:20:22.965Z,966.9
2018-12-31T08:21:22.950Z,966.87
2018-12-31T08:22:22.934Z,966.82
2018-12-31T08:23:22.918Z,966.83
2018-12-31T08:24:22.903Z,966.86
2018-12-31T08:25:22.887Z,966.81
2018-12-31T08:26:22.870Z,966.83
2018-12-31T08:27:22.855Z,966.81
2018-12-31T08:28:22.839Z,966.84
2018-12-31T08:29:22.827Z,966.86
2018-12-31T08:30:22.807Z,966.83
2018-12-31T08:31:22.795Z,966.86
2018-12-31T08:32:22.775Z,966.89
2018-12-31T08:33:22.759Z,966.86
2018-12-31T08:34:22.745Z,966.9
2018-12-31T08:35:22.728Z,966.92
2018-12-31T08:36:22.713Z,966.9
2018-12-31T08:37:22.696Z,966.91
2018-12-31T08:38:22.680Z,966.9
2018-12-31T08:39:22.665Z,966.91
2018-12-31T08:40:22.649Z,966.89
2018-12-31T08:41:22.633Z,966.99
2018-12-31T08:42:22.617Z,966.99
2018-12-31T08:43:22.602Z,967.01
2018-12-31T08:44:22.585Z,967.07
2018-12-31T08:45:22.570Z,967.11
2018-12-31T08:46:22.554Z,967.06
2018-12-31T08:47:22.539Z,966.97
2018-12-31T08:48:22.523Z,966.96
2018-12-31T08:49:22.507Z,967.05
2018-12-31T08:50:22.491Z,967.13
2018-12-31T08:51:22.475Z,967.16
2018-12-31T08:52:22.460Z,967.21
2018-12-31T08:53:22.444Z,967.19
2018-12-31T08:54:22.429Z,967.18
2018-12-31T08:55:22.412Z,967.18
2018-12-31T08:56:22.398Z,967.19
2018-12-31T08:57:22.381Z,967.21
2018-12-31T08:58:22.366Z,967.2
2018-12-31T08:59:22.350Z,967.22
2018-12-31T09:00:22.334Z,967.21
2018-12-31T09:01:22.318Z,967.25
2018-12-31T09:02:22.303Z,967.26
2018-12-31T09:03:22.286Z,967.27
2018-12-31T09:04:22.270Z,967.29
2018-12-31T09:05:22.256Z,967.23
2018-12-31T09:06:22.239Z,967.25
2018-12-31T09:07:22.222Z,967.22
2018-12-31T09:08:22.207Z,967.25
2018-12-31T09:09:22.194Z,967.26
2018-12-31T09:10:22.177Z,967.25
2018-12-31T09:11:22.161Z,967.2
2018-12-31T09:12:22.146Z,967.24
2018-12-31T09:13:22.130Z,967.2
2018-12-31T09:14:22.117Z,967.24
2018-12-31T09:15:22.098Z,967.21
2018-12-31T09:16:22.084Z,967.2
2018-12-31T09:17:22.067Z,967.16
2018-12-31T09:18:22.052Z,967.23
2018-12-31T09:19:22.035Z,967.21
2018-12-31T09:20:22.022Z,967.2
2018-12-31T09:21:22.002Z,967.25
2018-12-31T09:22:21.988Z,967.21
2018-12-31T09:23:21.974Z,967.2
2018-12-31T09:24:21.958Z,967.21
2018-12-31T09:25:21.942Z,967.2
2018-12-31T09:26:21.926Z,967.16
2018-12-31T09:27:21.912Z,967.14
2018-12-31T09:28:21.895Z,967.15
2018-12-31T09:29:21.878Z,967.16
2018-12-31T09:30:21.864Z,967.11
2018-12-31T09:31:21.847Z,967.09
2018-12-31T09:32:21.832Z,967.15
2018-12-31T09:33:21.825Z,967.09
2018-12-31T09:34:21.802Z,967.16
2018-12-31T09:35:21.789Z,967.16
2018-12-31T09:36:21.770Z,967.2
2018-12-31T09:37:21.755Z,967.18
2018-12-31T09:38:21.739Z,967.13
2018-12-31T09:39:21.725Z,967.15
2018-12-31T09:40:21.708Z,967.11
2018-12-31T09:41:21.692Z,967.05
2018-12-31T09:42:21.679Z,966.99
2018-12-31T09:43:21.662Z,966.95
2018-12-31T09:44:21.646Z,966.95
2018-12-31T09:45:21.632Z,966.94
2018-12-31T09:46:21.616Z,966.97
2018-12-31T09:47:21.600Z,967.01
2018-12-31T09:48:21.586Z,967.01
2018-12-31T09:49:21.570Z,967.05
2018-12-31T09:50:21.554Z,967.04
2018-12-31T09:51:21.539Z,967.08
2018-12-31T09:52:21.524Z,967
2018-12-31T09:53:21.510Z,967.02
2018-12-31T09:54:21.495Z,966.96
2018-12-31T09:55:21.479Z,966.95
2018-12-31T09:56:21.463Z,966.96
2018-12-31T09:57:21.447Z,966.94
2018-12-31T09:58:21.432Z,966.9
2018-12-31T09:59:21.417Z,966.89
2018-12-31T10:00:21.403Z,966.89
2018-12-31T10:01:21.407Z,966.93
2018-12-31T10:02:21.371Z,966.93
2018-12-31T10:03:21.356Z,966.96
2018-12-31T10:04:21.589Z,966.92
2018-12-31T10:05:21.325Z,966.95
2018-12-31T10:06:21.309Z,966.92
2018-12-31T10:07:21.295Z,966.9
2018-12-31T10:08:21.279Z,966.89
2018-12-31T10:09:21.263Z,966.94
2018-12-31T10:10:21.247Z,966.92
2018-12-31T10:11:21.235Z,966.93
2018-12-31T10:12:21.216Z,966.9
2018-12-31T10:13:21.202Z,966.91
2018-12-31T10:14:21.185Z,966.92
2018-12-31T10:15:21.171Z,966.89
2018-12-31T10:16:21.156Z,966.92
2018-12-31T10:17:21.142Z,966.95
2018-12-31T10:18:21.125Z,966.96
2018-12-31T10:19:21.109Z,966.95
2018-12-31T10:20:21.093Z,966.97
2018-12-31T10:21:21.078Z,966.95
2018-12-31T10:22:21.065Z,966.95
2018-12-31T10:23:21.047Z,966.99
2018-12-31T10:24:21.033Z,966.98
2018-12-31T10:25:21.019Z,967
2018-12-31T10:26:21.002Z,967
2018-12-31T10:27:20.986Z,966.99
2018-12-31T10:28:20.970Z,966.97
2018-12-31T10:29:20.976Z,966.94
2018-12-31T10:30:20.938Z,966.95
2018-12-31T10:31:20.925Z,966.97
2018-12-31T10:32:20.909Z,966.96
2018-12-31T10:33:20.894Z,966.94
2018-12-31T10:34:20.878Z,966.96
2018-12-31T10:35:20.866Z,966.92
2018-12-31T10:36:20.850Z,966.94
2018-12-31T10:37:20.832Z,966.96
2018-12-31T10:38:20.818Z,966.96
2018-12-31T10:39:20.802Z,966.95
2018-12-31T10:40:20.788Z,966.92
2018-12-31T10:41:20.771Z,966.9
2018-12-31T10:42:20.755Z,966.88
2018-12-31T10:43:20.741Z,966.86
2018-12-31T10:44:20.742Z,966.79
2018-12-31T10:45:20.709Z,966.78
2018-12-31T10:46:20.694Z,966.77
2018-12-31T10:47:20.678Z,966.76
2018-12-31T10:48:20.668Z,966.71
2018-12-31T10:49:20.648Z,966.74
2018-12-31T10:50:20.634Z,966.69
2018-12-31T10:51:20.620Z,966.7
2018-12-31T10:52:20.602Z,966.72
2018-12-31T10:53:20.588Z,966.74
2018-12-31T10:54:20.573Z,966.77
2018-12-31T10:55:20.563Z,966.72
2018-12-31T10:56:20.548Z,966.76
2018-12-31T10:57:20.530Z,966.74
2018-12-31T10:58:20.513Z,966.71
2018-12-31T10:59:20.497Z,966.68
2018-12-31T11:00:20.482Z,966.66
2018-12-31T11:01:20.465Z,966.64
2018-12-31T11:02:20.452Z,966.62
2018-12-31T11:03:20.435Z,966.59
2018-12-31T11:04:20.421Z,966.53
2018-12-31T11:05:20.405Z,966.49
2018-12-31T11:06:20.391Z,966.47
2018-12-31T11:07:20.376Z,966.49
2018-12-31T11:08:20.361Z,966.44
2018-12-31T11:09:20.346Z,966.43
2018-12-31T11:10:20.331Z,966.42
2018-12-31T11:11:20.314Z,966.46
2018-12-31T11:12:20.300Z,966.48
2018-12-31T11:13:20.283Z,966.46
2018-12-31T11:14:20.269Z,966.49
2018-12-31T11:15:20.254Z,966.47
2018-12-31T11:16:20.238Z,966.51
2018-12-31T11:17:20.225Z,966.5
2018-12-31T11:18:20.209Z,966.6
2018-12-31T11:19:20.201Z,966.58
2018-12-31T11:20:20.179Z,966.61
2018-12-31T11:21:20.164Z,966.61
2018-12-31T11:22:20.148Z,966.61
2018-12-31T11:23:20.134Z,966.6
2018-12-31T11:24:20.119Z,966.59
2018-12-31T11:25:20.104Z,966.57
2018-12-31T11:26:20.088Z,966.58
2018-12-31T11:27:20.073Z,966.57
2018-12-31T11:28:20.058Z,966.55
2018-12-31T11:29:20.042Z,966.56
2018-12-31T11:30:20.028Z,966.55
2018-12-31T11:31:20.014Z,966.55
2018-12-31T11:32:19.998Z,966.56
2018-12-31T11:33:19.983Z,966.57
2018-12-31T11:34:19.968Z,966.52
2018-12-31T11:35:19.953Z,966.56
2018-12-31T11:36:19.937Z,966.51
2018-12-31T11:37:19.922Z,966.54
2018-12-31T11:38:19.907Z,966.54
2018-12-31T11:39:19.893Z,966.51
2018-12-31T11:40:19.878Z,966.49
2018-12-31T11:41:19.862Z,966.46
2018-12-31T11:42:19.848Z,966.47
2018-12-31T11:43:19.831Z,966.44
2018-12-31T11:44:19.816Z,966.43
2018-12-31T11:45:19.802Z,966.43
2018-12-31T11:46:19.786Z,966.42
2018-12-31T11:47:19.770Z,966.45
2018-12-31T11:48:19.755Z,966.44
2018-12-31T11:49:19.740Z,966.39
2018-12-31T11:50:19.726Z,966.37
2018-12-31T11:51:19.709Z,966.32
2018-12-31T11:52:19.694Z,966.32
2018-12-31T11:53:19.680Z,966.31
2018-12-31T11:54:19.663Z,966.3
2018-12-31T11:55:19.649Z,966.3
2018-12-31T11:56:19.635Z,966.32
2018-12-31T11:57:19.619Z,966.3
2018-12-31T11:58:19.603Z,966.33
2018-12-31T11:59:19.588Z,966.29
2018-12-31T12:00:19.573Z,966.31
2018-12-31T12:01:19.566Z,966.33
2018-12-31T12:02:23.424Z,966.3
2018-12-31T12:03:19.527Z,966.35
2018-12-31T12:04:19.516Z,966.31
2018-12-31T12:05:19.497Z,966.3
2018-12-31T12:06:19.482Z,966.3
2018-12-31T12:07:19.466Z,966.29
2018-12-31T12:08:19.453Z,966.3
2018-12-31T12:09:19.437Z,966.24
2018-12-31T12:10:19.422Z,966.33
2018-12-31T12:11:19.407Z,966.28
2018-12-31T12:12:19.391Z,966.25
2018-12-31T12:13:19.376Z,966.24
2018-12-31T12:14:19.361Z,966.27
2018-12-31T12:15:19.347Z,966.29
2018-12-31T12:16:19.330Z,966.27
2018-12-31T12:17:19.316Z,966.29
2018-12-31T12:18:19.302Z,966.32
2018-12-31T12:19:19.287Z,966.26
2018-12-31T12:20:19.271Z,966.29
2018-12-31T12:21:19.256Z,966.3
2018-12-31T12:22:19.240Z,966.26
2018-12-31T12:23:19.227Z,966.24
2018-12-31T12:24:19.211Z,966.31
2018-12-31T12:25:19.196Z,966.25
2018-12-31T12:26:19.190Z,966.31
2018-12-31T12:27:19.165Z,966.31
2018-12-31T12:28:19.152Z,966.32
2018-12-31T12:29:19.136Z,966.32
2018-12-31T12:30:19.120Z,966.37
2018-12-31T12:31:19.104Z,966.36